To NAV CANADA Home Page Login to a new session Search on AWWS site Feedback and Comments Disclaimer Vers la page française équivalente Tips FAQ What's new on the site To the Forecasts and Observations / NOTAM section To "File a Flight Plan" website Publications and other links Update of the User's profile FIC Telephone Numbers My Weather Data Folder Route Weather Data Regional Weather Data Local Weather Data To the Forecasts and Observations / NOTAM section
Request Generated 01/21/2017 at 02:04:27 UTC . Weather information available at that time is displayed.

METAR/TAF

MAYO/YT    

METAR CYMA 210200Z 00000KT 15SM SKC M38/M42 A2983 RMK SLP195=
METAR CYMA 210100Z VRB02KT 20SM SKC M37/M41 A2981 RMK SLP183=
METAR CYMA 210000Z 00000KT 20SM SKC M35/M39 A2981 RMK CLIMAT
-33.3/-41.0/0.0 SOG 38 SLP180=

TAF CYMA 202338Z 2100/2112 VRB03KT P6SM SKC
RMK NXT FCST BY 210600Z=
Your time UTC time
Weather data provided by Environment Canada and NAV CANADA